createdAt,value
2018-08-24T00:01:38.881Z,3.17
2018-08-24T00:04:07.527Z,3.57
2018-08-24T00:06:37.615Z,3.80
2018-08-24T00:09:16.581Z,3.60
2018-08-24T00:11:45.182Z,3.53
2018-08-24T00:14:13.810Z,4.00
2018-08-24T00:16:43.073Z,3.23
2018-08-24T00:19:13.152Z,3.23
2018-08-24T00:21:41.869Z,3.27
2018-08-24T00:24:11.299Z,3.63
2018-08-24T00:26:39.971Z,3.63
2018-08-24T00:29:09.046Z,3.40
2018-08-24T00:31:39.124Z,2.83
2018-08-24T00:34:07.831Z,3.20
2018-08-24T00:36:36.469Z,3.10
2018-08-24T00:39:07.488Z,3.03
2018-08-24T00:41:36.261Z,2.83
2018-08-24T00:44:04.978Z,2.80
2018-08-24T00:46:33.664Z,3.00
2018-08-24T00:49:02.611Z,1.77
2018-08-24T00:51:31.342Z,2.33
2018-08-24T00:53:59.991Z,2.43
2018-08-24T00:56:28.649Z,2.00
2018-08-24T00:58:57.249Z,1.70
2018-08-24T01:01:26.007Z,1.40
2018-08-24T01:03:54.615Z,1.53
2018-08-24T01:06:23.414Z,1.37
2018-08-24T01:08:52.218Z,1.37
2018-08-24T01:11:25.053Z,1.00
2018-08-24T01:13:54.046Z,1.33
2018-08-24T01:16:27.848Z,1.23
2018-08-24T01:18:56.477Z,1.00
2018-08-24T01:21:25.098Z,1.23
2018-08-24T01:23:53.822Z,1.33
2018-08-24T01:26:23.805Z,1.10
2018-08-24T01:28:53.206Z,1.00
2018-08-24T01:31:21.988Z,0.90
2018-08-24T01:33:50.594Z,1.23
2018-08-24T01:36:19.198Z,1.70
2018-08-24T01:38:47.873Z,1.70
2018-08-24T01:41:16.552Z,1.57
2018-08-24T01:43:45.213Z,1.53
2018-08-24T01:46:15.222Z,1.80
2018-08-24T01:48:43.853Z,2.27
2018-08-24T01:51:13.281Z,1.40
2018-08-24T01:53:41.901Z,1.57
2018-08-24T01:56:10.550Z,1.80
2018-08-24T01:58:39.235Z,1.80
2018-08-24T02:01:07.902Z,2.60
2018-08-24T02:03:36.566Z,1.70
2018-08-24T02:06:05.256Z,1.90
2018-08-24T02:08:34.781Z,1.67
2018-08-24T02:11:07.613Z,2.30
2018-08-24T02:13:42.001Z,2.40
2018-08-24T02:16:10.609Z,2.10
2018-08-24T02:18:44.314Z,2.30
2018-08-24T02:21:19.579Z,1.93
2018-08-24T02:23:48.227Z,2.00
2018-08-24T02:26:16.817Z,2.63
2018-08-24T02:28:45.428Z,2.50
2018-08-24T02:31:14.101Z,2.40
2018-08-24T02:33:43.753Z,2.60
2018-08-24T02:36:12.391Z,2.60
2018-08-24T02:38:41.015Z,1.90
2018-08-24T02:41:09.661Z,2.40
2018-08-24T02:43:38.280Z,1.87
2018-08-24T02:46:07.135Z,1.77
2018-08-24T02:48:35.799Z,1.90
2018-08-24T02:51:04.528Z,2.27
2018-08-24T02:53:33.242Z,1.77
2018-08-24T02:56:01.886Z,2.23
2018-08-24T02:58:30.453Z,2.10
2018-08-24T03:00:59.137Z,2.30
2018-08-24T03:03:27.719Z,1.90
2018-08-24T03:05:56.414Z,2.77
2018-08-24T03:08:25.090Z,2.30
2018-08-24T03:10:53.669Z,2.30
2018-08-24T03:13:22.263Z,2.40
2018-08-24T03:15:50.989Z,2.57
2018-08-24T03:18:19.631Z,2.40
2018-08-24T03:20:48.366Z,2.60
2018-08-24T03:23:17.058Z,2.17
2018-08-24T03:25:45.659Z,2.60
2018-08-24T03:28:14.270Z,2.97
2018-08-24T03:30:42.929Z,2.87
2018-08-24T03:33:11.625Z,2.63
2018-08-24T03:35:40.258Z,2.87
2018-08-24T03:38:08.927Z,2.03
2018-08-24T03:40:37.527Z,3.10
2018-08-24T03:43:06.226Z,2.67
2018-08-24T03:45:34.918Z,2.40
2018-08-24T03:48:03.551Z,2.50
2018-08-24T03:50:32.191Z,3.20
2018-08-24T03:53:00.897Z,2.53
2018-08-24T03:55:33.666Z,3.40
2018-08-24T03:58:02.269Z,2.57
2018-08-24T04:00:30.899Z,3.57
2018-08-24T04:02:59.565Z,3.00
2018-08-24T04:05:28.198Z,2.50
2018-08-24T04:07:56.839Z,2.80
2018-08-24T04:10:26.721Z,3.00
2018-08-24T04:12:57.168Z,2.70
2018-08-24T04:15:25.717Z,2.53
2018-08-24T04:17:54.368Z,3.70
2018-08-24T04:20:23.029Z,2.47
2018-08-24T04:22:51.713Z,3.50
2018-08-24T04:25:20.377Z,4.10
2018-08-24T04:27:48.973Z,3.17
2018-08-24T04:30:17.717Z,2.67
2018-08-24T04:32:46.402Z,3.07
2018-08-24T04:35:15.080Z,2.97
2018-08-24T04:37:43.721Z,3.03
2018-08-24T04:40:12.385Z,2.47
2018-08-24T04:42:41.014Z,3.00
2018-08-24T04:45:09.649Z,3.13
2018-08-24T04:47:38.279Z,3.93
2018-08-24T04:50:07.037Z,3.37
2018-08-24T04:52:35.637Z,3.23
2018-08-24T04:55:04.358Z,2.80
2018-08-24T04:57:33.017Z,3.10
2018-08-24T05:00:01.700Z,2.90
2018-08-24T05:02:30.310Z,3.03
2018-08-24T05:04:58.934Z,2.90
2018-08-24T05:07:27.512Z,3.43
2018-08-24T05:09:56.266Z,2.93
2018-08-24T05:12:24.947Z,2.80
2018-08-24T05:14:53.556Z,2.87
2018-08-24T05:17:22.221Z,2.83
2018-08-24T05:19:50.838Z,3.77
2018-08-24T05:22:19.482Z,3.43
2018-08-24T05:24:48.166Z,3.40
2018-08-24T05:27:16.814Z,3.73
2018-08-24T05:29:45.446Z,4.70
2018-08-24T05:32:14.090Z,5.53
2018-08-24T05:34:49.363Z,4.70
2018-08-24T05:37:18.183Z,4.43
2018-08-24T05:39:46.787Z,4.30
2018-08-24T05:42:15.488Z,5.10
2018-08-24T05:44:44.109Z,6.10
2018-08-24T05:47:12.742Z,5.80
2018-08-24T05:49:41.347Z,6.17
2018-08-24T05:52:10.013Z,5.60
2018-08-24T05:54:38.669Z,6.50
2018-08-24T05:57:07.413Z,7.27
2018-08-24T05:59:36.032Z,6.77
2018-08-24T06:02:04.721Z,7.00
2018-08-24T06:04:33.325Z,6.83
2018-08-24T06:07:02.070Z,7.27
2018-08-24T06:09:30.754Z,7.50
2018-08-24T06:11:59.581Z,7.40
2018-08-24T06:14:28.282Z,7.03
2018-08-24T06:17:02.107Z,7.50
2018-08-24T06:19:30.814Z,6.60
2018-08-24T06:21:59.481Z,7.00
2018-08-24T06:24:28.132Z,7.33
2018-08-24T06:26:56.774Z,6.53
2018-08-24T06:29:25.585Z,7.07
2018-08-24T06:31:54.253Z,7.70
2018-08-24T06:34:23.975Z,7.77
2018-08-24T06:36:52.750Z,7.47
2018-08-24T06:39:21.381Z,7.70
2018-08-24T06:41:50.009Z,6.40
2018-08-24T06:44:18.662Z,6.80
2018-08-24T06:46:47.238Z,7.50
2018-08-24T06:49:15.890Z,6.87
2018-08-24T06:51:44.493Z,8.10
2018-08-24T06:54:13.277Z,6.50
2018-08-24T06:56:41.914Z,7.20
2018-08-24T06:59:10.590Z,6.37
2018-08-24T07:01:39.262Z,6.60
2018-08-24T07:04:08.647Z,6.77
2018-08-24T07:06:37.324Z,6.57
2018-08-24T07:09:07.486Z,6.70
2018-08-24T07:11:36.194Z,6.50
2018-08-24T07:14:04.864Z,6.90
2018-08-24T07:16:33.526Z,7.30
2018-08-24T07:19:02.184Z,6.60
2018-08-24T07:21:30.968Z,8.20
2018-08-24T07:23:59.668Z,7.73
2018-08-24T07:26:28.334Z,7.70
2018-08-24T07:28:56.973Z,8.03
2018-08-24T07:31:25.668Z,7.83
2018-08-24T07:33:54.316Z,8.33
2018-08-24T07:36:22.985Z,8.10
2018-08-24T07:38:51.660Z,8.77
2018-08-24T07:41:20.404Z,9.17
2018-08-24T07:43:49.029Z,7.87
2018-08-24T07:46:17.705Z,8.30
2018-08-24T07:48:46.317Z,8.80
2018-08-24T07:51:14.981Z,8.37
2018-08-24T07:53:43.628Z,8.07
2018-08-24T07:56:12.346Z,7.80
2018-08-24T07:58:41.054Z,8.30
2018-08-24T08:01:09.782Z,7.20
2018-08-24T08:03:38.590Z,8.10
2018-08-24T08:06:07.245Z,7.40
2018-08-24T08:08:35.861Z,8.27
2018-08-24T08:11:04.929Z,8.20
2018-08-24T08:13:33.638Z,7.03
2018-08-24T08:16:02.328Z,7.40
2018-08-24T08:18:30.993Z,8.37
2018-08-24T08:20:59.702Z,7.20
2018-08-24T08:23:28.397Z,8.07
2018-08-24T08:25:57.067Z,6.60
2018-08-24T08:28:25.783Z,7.40
2018-08-24T08:30:54.401Z,7.87
2018-08-24T08:33:23.101Z,7.53
2018-08-24T08:35:51.719Z,6.97
2018-08-24T08:38:20.421Z,6.60
2018-08-24T08:40:49.051Z,6.77
2018-08-24T08:43:18.545Z,6.13
2018-08-24T08:45:47.362Z,7.77
2018-08-24T08:48:16.017Z,6.27
2018-08-24T08:50:44.695Z,6.80
2018-08-24T08:53:13.418Z,6.57
2018-08-24T08:55:42.019Z,7.40
2018-08-24T08:58:10.646Z,6.83
2018-08-24T09:00:39.414Z,8.20
2018-08-24T09:03:08.087Z,6.97
2018-08-24T09:05:36.739Z,6.63
2018-08-24T09:08:05.554Z,6.47
2018-08-24T09:10:34.270Z,6.90
2018-08-24T09:13:03.002Z,6.10
2018-08-24T09:15:31.625Z,7.00
2018-08-24T09:18:05.374Z,7.47
2018-08-24T09:20:39.316Z,5.97
2018-08-24T09:23:13.260Z,5.93
2018-08-24T09:25:47.268Z,5.80
2018-08-24T09:28:22.890Z,5.23
2018-08-24T09:31:00.796Z,5.53
2018-08-24T09:33:29.434Z,5.07
2018-08-24T09:36:02.173Z,5.40
2018-08-24T09:38:30.861Z,6.30
2018-08-24T09:40:59.565Z,4.87
2018-08-24T09:43:33.470Z,5.97
2018-08-24T09:46:02.111Z,6.23
2018-08-24T09:48:34.915Z,7.00
2018-08-24T09:51:08.949Z,7.03
2018-08-24T09:53:42.807Z,6.47
2018-08-24T09:56:11.489Z,6.33
2018-08-24T09:58:40.122Z,6.80
2018-08-24T10:01:14.187Z,8.13
2018-08-24T10:03:48.253Z,5.63
2018-08-24T10:06:22.284Z,5.60
2018-08-24T10:08:51.224Z,5.27
2018-08-24T10:11:19.969Z,5.13
2018-08-24T10:13:48.681Z,5.83
2018-08-24T10:16:17.408Z,6.70
2018-08-24T10:18:46.165Z,4.30
2018-08-24T10:21:15.069Z,5.13
2018-08-24T10:23:43.870Z,4.93
2018-08-24T10:26:12.518Z,5.10
2018-08-24T10:28:41.133Z,4.77
2018-08-24T10:31:09.787Z,4.00
2018-08-24T10:33:38.580Z,3.93
2018-08-24T10:36:07.309Z,3.20
2018-08-24T10:38:35.932Z,3.57
2018-08-24T10:41:04.640Z,4.70
2018-08-24T10:43:33.301Z,3.30
2018-08-24T10:46:01.892Z,3.30
2018-08-24T10:48:30.549Z,3.60
2018-08-24T10:50:59.185Z,4.30
2018-08-24T10:53:27.864Z,3.80
2018-08-24T10:55:56.546Z,3.87
2018-08-24T10:58:25.322Z,4.47
2018-08-24T11:00:53.966Z,4.27
2018-08-24T11:03:22.546Z,3.37
2018-08-24T11:05:51.240Z,3.83
2018-08-24T11:08:19.852Z,3.40
2018-08-24T11:10:48.534Z,3.47
2018-08-24T11:13:17.186Z,4.03
2018-08-24T11:15:48.781Z,3.83
2018-08-24T11:18:17.869Z,4.87
2018-08-24T11:20:46.505Z,3.80
2018-08-24T11:23:15.182Z,3.57
2018-08-24T11:25:43.894Z,3.40
2018-08-24T11:28:12.666Z,4.17
2018-08-24T11:30:41.346Z,3.23
2018-08-24T11:33:10.036Z,3.53
2018-08-24T11:35:38.735Z,3.07
2018-08-24T11:38:07.388Z,3.20
2018-08-24T11:40:36.028Z,3.07
2018-08-24T11:43:04.746Z,3.60
2018-08-24T11:45:33.499Z,2.97
2018-08-24T11:48:02.166Z,3.43
2018-08-24T11:50:30.817Z,3.33
2018-08-24T11:52:59.429Z,3.13
2018-08-24T11:55:28.095Z,3.47
2018-08-24T11:57:56.746Z,3.40
2018-08-24T12:00:31.733Z,3.80
2018-08-24T12:03:01.403Z,3.37
2018-08-24T12:05:30.467Z,4.67
2018-08-24T12:07:59.222Z,3.53
2018-08-24T12:10:28.113Z,4.47
2018-08-24T12:12:57.451Z,6.30
2018-08-24T12:15:26.090Z,5.17
2018-08-24T12:17:54.908Z,3.73
2018-08-24T12:20:23.641Z,3.87
2018-08-24T12:22:52.533Z,3.00
2018-08-24T12:25:21.207Z,4.00
2018-08-24T12:27:49.854Z,4.60
2018-08-24T12:30:18.486Z,3.00
2018-08-24T12:32:47.239Z,3.90
2018-08-24T12:35:15.878Z,3.23
2018-08-24T12:37:45.778Z,4.10
2018-08-24T12:40:15.184Z,6.07
2018-08-24T12:42:43.945Z,3.80
2018-08-24T12:45:12.618Z,2.50
2018-08-24T12:47:41.230Z,2.60
2018-08-24T12:50:10.471Z,2.87
2018-08-24T12:52:39.157Z,4.27
2018-08-24T12:55:07.885Z,1.93
2018-08-24T12:57:36.609Z,2.10
2018-08-24T13:00:05.853Z,2.37
2018-08-24T13:02:34.466Z,2.40
2018-08-24T13:05:03.198Z,1.63
2018-08-24T13:07:31.861Z,1.20
2018-08-24T13:10:00.534Z,2.30
2018-08-24T13:12:29.198Z,2.03
2018-08-24T13:14:57.849Z,1.80
2018-08-24T13:17:26.554Z,1.83
2018-08-24T13:19:55.225Z,1.90
2018-08-24T13:22:23.893Z,1.43
2018-08-24T13:24:52.561Z,1.80
2018-08-24T13:27:21.228Z,1.27
2018-08-24T13:29:49.894Z,1.00
2018-08-24T13:32:18.632Z,0.87
2018-08-24T13:34:47.322Z,1.30
2018-08-24T13:37:17.468Z,2.53
2018-08-24T13:39:46.689Z,1.10
2018-08-24T13:42:15.497Z,1.50
2018-08-24T13:44:45.763Z,1.07
2018-08-24T13:47:14.427Z,1.10
2018-08-24T13:49:43.315Z,1.40
2018-08-24T13:52:13.045Z,1.53
2018-08-24T13:54:41.787Z,1.30
2018-08-24T13:57:10.425Z,0.97
2018-08-24T13:59:39.441Z,1.63
2018-08-24T14:02:08.254Z,1.33
2018-08-24T14:04:36.994Z,1.70
2018-08-24T14:07:05.666Z,1.80
2018-08-24T14:09:34.286Z,1.30
2018-08-24T14:12:02.897Z,1.70
2018-08-24T14:14:31.671Z,1.50
2018-08-24T14:17:00.345Z,2.03
2018-08-24T14:19:29.017Z,1.90
2018-08-24T14:21:57.710Z,1.90
2018-08-24T14:24:26.323Z,1.73
2018-08-24T14:26:55.010Z,1.67
2018-08-24T14:29:23.734Z,1.97
2018-08-24T14:31:52.464Z,2.03
2018-08-24T14:34:21.149Z,2.20
2018-08-24T14:36:49.750Z,2.13
2018-08-24T14:39:20.407Z,2.40
2018-08-24T14:41:49.095Z,1.50
2018-08-24T14:44:17.839Z,1.90
2018-08-24T14:46:46.569Z,1.73
2018-08-24T14:49:15.225Z,1.67
2018-08-24T14:51:43.914Z,1.80
2018-08-24T14:54:12.582Z,1.23
2018-08-24T14:56:41.292Z,2.07
2018-08-24T14:59:10.159Z,1.40
2018-08-24T15:01:47.497Z,1.80
2018-08-24T15:04:16.149Z,1.97
2018-08-24T15:06:44.907Z,1.80
2018-08-24T15:09:13.578Z,1.50
2018-08-24T15:11:42.274Z,1.37
2018-08-24T15:14:10.934Z,1.43
2018-08-24T15:16:39.660Z,1.90
2018-08-24T15:19:08.307Z,1.60
2018-08-24T15:21:36.978Z,1.77
2018-08-24T15:24:05.967Z,1.40
2018-08-24T15:26:34.641Z,2.63
2018-08-24T15:29:03.357Z,1.70
2018-08-24T15:31:32.102Z,1.43
2018-08-24T15:34:00.734Z,1.53
2018-08-24T15:36:29.432Z,1.00
2018-08-24T15:38:58.134Z,1.23
2018-08-24T15:41:26.783Z,1.20
2018-08-24T15:43:55.461Z,1.03
2018-08-24T15:46:24.426Z,0.83
2018-08-24T15:48:52.981Z,1.20
2018-08-24T15:51:21.676Z,1.43
2018-08-24T15:53:50.301Z,1.33
2018-08-24T15:56:18.921Z,0.80
2018-08-24T15:58:47.518Z,1.57
2018-08-24T16:01:16.203Z,1.20
2018-08-24T16:03:44.864Z,1.40
2018-08-24T16:06:13.573Z,1.37
2018-08-24T16:08:42.263Z,1.20
2018-08-24T16:11:10.962Z,1.67
2018-08-24T16:13:39.581Z,1.40
2018-08-24T16:16:08.844Z,1.37
2018-08-24T16:18:37.566Z,1.30
2018-08-24T16:21:06.339Z,1.10
2018-08-24T16:23:34.967Z,1.33
2018-08-24T16:26:03.596Z,1.60
2018-08-24T16:28:32.248Z,1.50
2018-08-24T16:31:00.945Z,1.53
2018-08-24T16:33:29.590Z,1.20
2018-08-24T16:35:58.194Z,1.50
2018-08-24T16:38:26.993Z,1.37
2018-08-24T16:40:55.673Z,1.47
2018-08-24T16:43:24.562Z,1.37
2018-08-24T16:45:53.256Z,1.47
2018-08-24T16:48:22.259Z,1.23
2018-08-24T16:50:51.139Z,1.17
2018-08-24T16:53:20.041Z,1.27
2018-08-24T16:55:48.726Z,1.83
2018-08-24T16:58:17.495Z,1.07
2018-08-24T17:00:46.522Z,0.97
2018-08-24T17:03:15.432Z,1.03
2018-08-24T17:05:44.395Z,1.13
2018-08-24T17:08:13.089Z,1.10
2018-08-24T17:10:41.981Z,1.07
2018-08-24T17:13:10.830Z,2.20
2018-08-24T17:15:39.643Z,1.23
2018-08-24T17:18:08.848Z,0.90
2018-08-24T17:20:38.170Z,0.90
2018-08-24T17:23:08.041Z,1.20
2018-08-24T17:25:37.169Z,0.80
2018-08-24T17:28:06.821Z,1.43
2018-08-24T17:30:35.483Z,1.00
2018-08-24T17:33:04.198Z,1.20
2018-08-24T17:35:33.178Z,1.47
2018-08-24T17:38:01.805Z,1.10
2018-08-24T17:40:30.451Z,1.33
2018-08-24T17:42:59.072Z,1.73
2018-08-24T17:45:27.821Z,1.30
2018-08-24T17:47:56.636Z,2.00
2018-08-24T17:50:26.093Z,1.53
2018-08-24T17:52:55.130Z,1.60
2018-08-24T17:55:24.757Z,0.93
2018-08-24T17:57:53.462Z,1.27
2018-08-24T18:00:22.249Z,1.60
2018-08-24T18:02:51.022Z,1.20
2018-08-24T18:05:19.650Z,1.50
2018-08-24T18:07:49.006Z,1.37
2018-08-24T18:10:17.731Z,1.07
2018-08-24T18:12:47.288Z,0.80
2018-08-24T18:15:16.017Z,1.37
2018-08-24T18:17:46.066Z,1.20
2018-08-24T18:20:14.683Z,1.50
2018-08-24T18:22:43.413Z,1.10
2018-08-24T18:25:12.134Z,1.70
2018-08-24T18:27:41.666Z,1.23
2018-08-24T18:30:10.694Z,1.40
2018-08-24T18:32:40.831Z,1.30
2018-08-24T18:35:09.577Z,1.37
2018-08-24T18:37:38.258Z,1.30
2018-08-24T18:40:10.759Z,1.60
2018-08-24T18:42:39.851Z,1.93
2018-08-24T18:45:08.458Z,1.90
2018-08-24T18:47:37.106Z,1.67
2018-08-24T18:50:05.806Z,1.70
2018-08-24T18:52:34.425Z,1.50
2018-08-24T18:55:05.308Z,1.27
2018-08-24T18:57:33.907Z,1.37
2018-08-24T19:00:02.593Z,1.70
2018-08-24T19:02:31.206Z,1.23
2018-08-24T19:05:01.188Z,1.60
2018-08-24T19:07:29.817Z,1.60
2018-08-24T19:09:58.579Z,1.87
2018-08-24T19:12:29.518Z,1.47
2018-08-24T19:15:04.698Z,1.50
2018-08-24T19:17:38.622Z,1.90
2018-08-24T19:20:12.730Z,1.50
2018-08-24T19:22:45.518Z,1.40
2018-08-24T19:25:14.192Z,1.53
2018-08-24T19:27:48.124Z,1.30
2018-08-24T19:30:22.242Z,1.80
2018-08-24T19:32:51.155Z,1.63
2018-08-24T19:35:19.998Z,1.30
2018-08-24T19:37:48.671Z,2.00
2018-08-24T19:40:22.630Z,1.27
2018-08-24T19:42:51.298Z,1.40
2018-08-24T19:45:19.971Z,1.80
2018-08-24T19:47:53.782Z,2.00
2018-08-24T19:50:22.431Z,1.33
2018-08-24T19:52:51.720Z,1.50
2018-08-24T19:55:20.394Z,1.47
2018-08-24T19:57:54.270Z,1.97
2018-08-24T20:00:22.944Z,1.30
2018-08-24T20:02:51.702Z,1.53
2018-08-24T20:05:20.449Z,1.40
2018-08-24T20:07:54.431Z,1.50
2018-08-24T20:10:23.161Z,1.20
2018-08-24T20:12:52.313Z,1.70
2018-08-24T20:15:26.373Z,1.30
2018-08-24T20:17:55.069Z,1.60
2018-08-24T20:20:23.685Z,1.80
2018-08-24T20:22:52.327Z,1.30
2018-08-24T20:25:21.005Z,1.70
2018-08-24T20:27:49.638Z,1.23
2018-08-24T20:30:18.273Z,1.20
2018-08-24T20:32:47.067Z,1.10
2018-08-24T20:35:15.981Z,1.50
2018-08-24T20:37:44.623Z,1.20
2018-08-24T20:40:13.483Z,2.10
2018-08-24T20:42:41.998Z,1.20
2018-08-24T20:45:10.709Z,1.50
2018-08-24T20:47:39.338Z,1.33
2018-08-24T20:50:08.165Z,1.80
2018-08-24T20:52:36.797Z,1.07
2018-08-24T20:55:05.497Z,2.10
2018-08-24T20:57:34.241Z,1.67
2018-08-24T21:00:02.930Z,1.47
2018-08-24T21:02:31.666Z,1.53
2018-08-24T21:05:00.341Z,1.40
2018-08-24T21:07:28.966Z,1.20
2018-08-24T21:09:57.651Z,1.67
2018-08-24T21:12:26.346Z,1.40
2018-08-24T21:14:55.105Z,1.50
2018-08-24T21:17:23.757Z,1.27
2018-08-24T21:19:52.438Z,1.00
2018-08-24T21:22:21.107Z,1.40
2018-08-24T21:24:49.934Z,1.37
2018-08-24T21:27:18.698Z,1.10
2018-08-24T21:29:47.338Z,1.40
2018-08-24T21:32:16.073Z,1.20
2018-08-24T21:34:44.734Z,1.77
2018-08-24T21:37:13.454Z,0.97
2018-08-24T21:40:01.980Z,0.90
2018-08-24T21:42:30.693Z,1.47
2018-08-24T21:45:07.770Z,1.40
2018-08-24T21:47:36.459Z,1.00
2018-08-24T21:50:08.474Z,1.40
2018-08-24T21:52:37.126Z,1.07
2018-08-24T21:55:05.898Z,1.20
2018-08-24T21:57:34.635Z,1.00
2018-08-24T22:00:03.438Z,0.97
2018-08-24T22:02:32.095Z,1.20
2018-08-24T22:05:00.694Z,1.23
2018-08-24T22:07:29.314Z,2.07
2018-08-24T22:09:57.985Z,1.30
2018-08-24T22:12:26.606Z,1.30
2018-08-24T22:14:56.571Z,0.93
2018-08-24T22:17:25.283Z,1.47
2018-08-24T22:19:53.899Z,1.00
2018-08-24T22:22:22.565Z,1.33
2018-08-24T22:24:51.196Z,1.20
2018-08-24T22:27:19.913Z,0.93
2018-08-24T22:29:48.691Z,0.77
2018-08-24T22:32:17.307Z,1.07
2018-08-24T22:34:46.024Z,1.30
2018-08-24T22:37:14.635Z,1.20
2018-08-24T22:39:43.274Z,1.37
2018-08-24T22:42:11.896Z,1.13
2018-08-24T22:44:40.705Z,1.50
2018-08-24T22:47:09.354Z,1.13
2018-08-24T22:49:37.985Z,0.60
2018-08-24T22:52:06.832Z,1.50
2018-08-24T22:54:35.491Z,1.67
2018-08-24T22:57:04.341Z,1.70
2018-08-24T22:59:33.018Z,1.03
2018-08-24T23:02:01.739Z,0.93
2018-08-24T23:04:30.472Z,0.87
2018-08-24T23:06:59.146Z,1.40
2018-08-24T23:09:27.841Z,1.77
2018-08-24T23:11:56.455Z,0.80
2018-08-24T23:14:25.086Z,0.93
2018-08-24T23:16:53.751Z,0.90
2018-08-24T23:19:22.405Z,1.13
2018-08-24T23:21:51.085Z,0.93
2018-08-24T23:24:19.691Z,0.90
2018-08-24T23:26:48.340Z,0.73
2018-08-24T23:29:16.991Z,1.13
2018-08-24T23:31:45.625Z,1.07
2018-08-24T23:34:17.270Z,1.03
2018-08-24T23:36:45.889Z,1.37
2018-08-24T23:39:16.145Z,1.27
2018-08-24T23:41:44.849Z,0.90
2018-08-24T23:44:13.569Z,1.03
2018-08-24T23:46:42.867Z,1.23
2018-08-24T23:49:11.487Z,1.20
2018-08-24T23:51:40.158Z,1.10
2018-08-24T23:54:08.793Z,1.37
2018-08-24T23:56:37.420Z,1.00
2018-08-24T23:59:06.385Z,1.00
